Patcona II — WDC2170 — position and weather

sailwx.info

Track history (hours):
 
Tides and Currents Weather Stations Pressure Air Temp Water Temp Dewpoint Dewpoint Depression Visibility Wind Speed Wind Dir Waves Ship Positions

Patcona II

Owner: Connolly-Pacific Co, long beach, CA. More information available from US FCC via Universal Licensing System and Coast Guard Vessel Documentation Center.

Last reported at 2018-Apr-24 23:54 UTC. Time now 2018-Apr-25 02:54 UTC.
Position N 33°46' W 118°13'.

Length 25 m; draft 3.5 m.

Type: Towing. MMSI: 366988960.

Date/timePositionNaut miles runAvg speedWind from/ knotsBaromVisibWave heightAir tempDewpointWater temp
2018-Apr-24 23:54N 33°46' W 118°13'1 2.2
2018-Apr-24 23:30N 33°45' W 118°13'2 4.0
2018-Apr-24 23:00N 33°44' W 118°12'23 5.6
2018-Apr-24 18:52N 33°21' W 118°17'20 2.6
2018-Apr-24 11:12N 33°40' W 118°12'3 7.5
2018-Apr-24 10:50N 33°43' W 118°11'2 5.3
2018-Apr-24 10:29N 33°44' W 118°13'2 3.3
2018-Apr-24 10:00N 33°46' W 118°13'0 0.0
2018-Apr-24 02:31N 33°46' W 118°13'0 5.1
2018-Apr-24 02:30N 33°46' W 118°13'1 1.7
2018-Apr-24 02:00N 33°45' W 118°13'2 4.2
2018-Apr-24 01:30N 33°44' W 118°12'1 3.0
2018-Apr-24 01:00N 33°43' W 118°10'3 5.3
2018-Apr-24 00:30N 33°40' W 118°11'2 0.1
2018-Apr-23 11:13N 33°41' W 118°12'2 7.8
2018-Apr-23 11:00N 33°42' W 118°12'2 4.5
2018-Apr-23 10:30N 33°44' W 118°13'2 3.3
2018-Apr-23 09:59N 33°46' W 118°13'0 0.0
2018-Apr-23 09:30N 33°46' W 118°13'0 0.1
2018-Apr-23 08:59N 33°46' W 118°13'  
2018-Apr-20 23:58N 33°46' W 118°13'1 1.9
2018-Apr-20 23:30N 33°45' W 118°13'2 4.4
2018-Apr-20 23:00N 33°44' W 118°11'2 3.2
2018-Apr-20 22:28N 33°42' W 118°11'4 0.3
2018-Apr-20 11:12N 33°42' W 118°15'1 4.3
2018-Apr-20 11:00N 33°43' W 118°15'3 5.6
2018-Apr-20 10:30N 33°45' W 118°13'1 1.8
2018-Apr-20 09:56N 33°46' W 118°13'0 0.0
2018-Apr-20 02:15N 33°46' W 118°13'1 3.6
2018-Apr-20 02:00N 33°45' W 118°13'2 3.7
2018-Apr-20 01:29N 33°44' W 118°12'3 0.2
2018-Apr-19 11:27N 33°41' W 118°12'2 4.9
2018-Apr-19 11:00N 33°43' W 118°11'2 3.9
2018-Apr-19 10:25N 33°45' W 118°13'1 2.0
2018-Apr-19 10:00N 33°46' W 118°13'0 0.0
2018-Apr-19 05:25N 33°46' W 118°13'1 1.6
2018-Apr-19 04:59N 33°45' W 118°13'1 2.7
2018-Apr-19 04:29N 33°44' W 118°14'1 1.1
2018-Apr-19 03:44N 33°43' W 118°14'21 3.9
2018-Apr-18 22:28N 33°22' W 118°17'2 4.1
2018-Apr-18 21:59N 33°20' W 118°17'1 2.1
2018-Apr-18 21:20N 33°19' W 118°18'0 0.5
2018-Apr-18 21:00N 33°19' W 118°18'0 0.1
2018-Apr-18 20:00N 33°19' W 118°18'0 0.0
2018-Apr-18 16:21N 33°19' W 118°18'0 0.6
2018-Apr-18 15:54N 33°19' W 118°18'23 5.0
2018-Apr-18 11:17N 33°42' W 118°15'1 3.8
2018-Apr-18 11:01N 33°43' W 118°14'1 2.2
2018-Apr-18 10:31N 33°44' W 118°14'1 2.2
2018-Apr-18 10:01N 33°45' W 118°13'1 2.1
2018-Apr-18 09:30N 33°46' W 118°13'0 0.0
2018-Apr-17 23:21N 33°46' W 118°13'1 2.0
2018-Apr-17 23:00N 33°45' W 118°13'1 1.0
2018-Apr-17 22:31N 33°45' W 118°13'0 0.0
2018-Apr-17 21:59N 33°45' W 118°13'0 0.7
2018-Apr-17 21:30N 33°45' W 118°13'1 0.5
2018-Apr-17 20:05N 33°46' W 118°13'0 0.0
2018-Apr-17 20:00N 33°46' W 118°13'1 1.7
2018-Apr-17 19:30N 33°45' W 118°13'0 0.1
2018-Apr-17 19:00N 33°45' W 118°13'0 0.7
2018-Apr-17 18:30N 33°46' W 118°13'0 0.9
2018-Apr-17 18:00N 33°46' W 118°13'0 0.0
2018-Apr-17 17:28N 33°46' W 118°13'0 0.0
2018-Apr-17 17:00N 33°46' W 118°13'0 0.0
2018-Apr-17 16:30N 33°46' W 118°13'0 0.0
2018-Apr-17 16:00N 33°46' W 118°13'1 1.8
2018-Apr-17 15:30N 33°45' W 118°13'0 0.9
2018-Apr-17 15:00N 33°45' W 118°13'0 0.1
2018-Apr-17 14:30N 33°45' W 118°13'1 1.1
2018-Apr-17 14:00N 33°45' W 118°13'1 1.8
2018-Apr-17 13:28N 33°46' W 118°13'  
2018-Apr-15 00:23N 33°46' W 118°13'1 2.3
2018-Apr-15 00:00N 33°45' W 118°13'  
Track history (hours):
 
Tides and Currents Weather Stations Pressure Air Temp Water Temp Dewpoint Dewpoint Depression Visibility Wind Speed Wind Dir Waves Ship Positions

Patcona II

Owner: Connolly-Pacific Co, long beach, CA. More information available from US FCC via Universal Licensing System and Coast Guard Vessel Documentation Center.

Last reported at 2018-Apr-24 23:54 UTC. Time now 2018-Apr-25 02:54 UTC.
Position N 33°46' W 118°13'.

Length 25 m; draft 3.5 m.

Type: Towing. MMSI: 366988960.

Date/timePositionNaut miles runAvg speedWind from/ knotsBaromVisibWave heightAir tempDewpointWater temp
2018-Apr-24 23:54N 33°46' W 118°13'1 2.2
2018-Apr-24 23:30N 33°45' W 118°13'2 4.0
2018-Apr-24 23:00N 33°44' W 118°12'23 5.6
2018-Apr-24 18:52N 33°21' W 118°17'20 2.6
2018-Apr-24 11:12N 33°40' W 118°12'3 7.5
2018-Apr-24 10:50N 33°43' W 118°11'2 5.3
2018-Apr-24 10:29N 33°44' W 118°13'2 3.3
2018-Apr-24 10:00N 33°46' W 118°13'0 0.0
2018-Apr-24 02:31N 33°46' W 118°13'0 5.1
2018-Apr-24 02:30N 33°46' W 118°13'1 1.7
2018-Apr-24 02:00N 33°45' W 118°13'2 4.2
2018-Apr-24 01:30N 33°44' W 118°12'1 3.0
2018-Apr-24 01:00N 33°43' W 118°10'3 5.3
2018-Apr-24 00:30N 33°40' W 118°11'2 0.1
2018-Apr-23 11:13N 33°41' W 118°12'2 7.8
2018-Apr-23 11:00N 33°42' W 118°12'2 4.5
2018-Apr-23 10:30N 33°44' W 118°13'2 3.3
2018-Apr-23 09:59N 33°46' W 118°13'0 0.0
2018-Apr-23 09:30N 33°46' W 118°13'0 0.1
2018-Apr-23 08:59N 33°46' W 118°13'  
2018-Apr-20 23:58N 33°46' W 118°13'1 1.9
2018-Apr-20 23:30N 33°45' W 118°13'2 4.4
2018-Apr-20 23:00N 33°44' W 118°11'2 3.2
2018-Apr-20 22:28N 33°42' W 118°11'4 0.3
2018-Apr-20 11:12N 33°42' W 118°15'1 4.3
2018-Apr-20 11:00N 33°43' W 118°15'3 5.6
2018-Apr-20 10:30N 33°45' W 118°13'1 1.8
2018-Apr-20 09:56N 33°46' W 118°13'0 0.0
2018-Apr-20 02:15N 33°46' W 118°13'1 3.6
2018-Apr-20 02:00N 33°45' W 118°13'2 3.7
2018-Apr-20 01:29N 33°44' W 118°12'3 0.2
2018-Apr-19 11:27N 33°41' W 118°12'2 4.9
2018-Apr-19 11:00N 33°43' W 118°11'2 3.9
2018-Apr-19 10:25N 33°45' W 118°13'1 2.0
2018-Apr-19 10:00N 33°46' W 118°13'0 0.0
2018-Apr-19 05:25N 33°46' W 118°13'1 1.6
2018-Apr-19 04:59N 33°45' W 118°13'1 2.7
2018-Apr-19 04:29N 33°44' W 118°14'1 1.1
2018-Apr-19 03:44N 33°43' W 118°14'21 3.9
2018-Apr-18 22:28N 33°22' W 118°17'2 4.1
2018-Apr-18 21:59N 33°20' W 118°17'1 2.1
2018-Apr-18 21:20N 33°19' W 118°18'0 0.5
2018-Apr-18 21:00N 33°19' W 118°18'0 0.1
2018-Apr-18 20:00N 33°19' W 118°18'0 0.0
2018-Apr-18 16:21N 33°19' W 118°18'0 0.6
2018-Apr-18 15:54N 33°19' W 118°18'23 5.0
2018-Apr-18 11:17N 33°42' W 118°15'1 3.8
2018-Apr-18 11:01N 33°43' W 118°14'1 2.2
2018-Apr-18 10:31N 33°44' W 118°14'1 2.2
2018-Apr-18 10:01N 33°45' W 118°13'1 2.1
2018-Apr-18 09:30N 33°46' W 118°13'0 0.0
2018-Apr-17 23:21N 33°46' W 118°13'1 2.0
2018-Apr-17 23:00N 33°45' W 118°13'1 1.0
2018-Apr-17 22:31N 33°45' W 118°13'0 0.0
2018-Apr-17 21:59N 33°45' W 118°13'0 0.7
2018-Apr-17 21:30N 33°45' W 118°13'1 0.5
2018-Apr-17 20:05N 33°46' W 118°13'0 0.0
2018-Apr-17 20:00N 33°46' W 118°13'1 1.7
2018-Apr-17 19:30N 33°45' W 118°13'0 0.1
2018-Apr-17 19:00N 33°45' W 118°13'0 0.7
2018-Apr-17 18:30N 33°46' W 118°13'0 0.9
2018-Apr-17 18:00N 33°46' W 118°13'0 0.0
2018-Apr-17 17:28N 33°46' W 118°13'0 0.0
2018-Apr-17 17:00N 33°46' W 118°13'0 0.0
2018-Apr-17 16:30N 33°46' W 118°13'0 0.0
2018-Apr-17 16:00N 33°46' W 118°13'1 1.8
2018-Apr-17 15:30N 33°45' W 118°13'0 0.9
2018-Apr-17 15:00N 33°45' W 118°13'0 0.1
2018-Apr-17 14:30N 33°45' W 118°13'1 1.1
2018-Apr-17 14:00N 33°45' W 118°13'1 1.8
2018-Apr-17 13:28N 33°46' W 118°13'  
2018-Apr-15 00:23N 33°46' W 118°13'1 2.3
2018-Apr-15 00:00N 33°45' W 118°13'  

Dump ship's entire track history